Time;durP1;ratioP1;P1;durP2;ratioP2;P2;SDS_P1;SDS_P2;PMS_P1;PMS_P2;Temp;Humidity;BMP_temperature;BMP_pressure;BME280_temperature;BME280_humidity;BME280_pressure;Samples;Min_cycle;Max_cycle;Signal;HPM_P1;HPM_P2
2023/08/13 00:01:48;;;;;;;15.93;7.67;;;;;;;14.12;100.00;101265.97;7394249;19;20403;-39
2023/08/13 00:04:18;;;;;;;12.00;5.93;;;;;;;14.13;100.00;101260.84;7370018;19;20437;-39
2023/08/13 00:06:48;;;;;;;17.80;9.53;;;;;;;14.13;100.00;101263.44;7393850;19;20423;-38
2023/08/13 00:09:17;;;;;;;33.83;6.70;;;;;;;14.12;100.00;101266.88;7370444;19;20433;-39
2023/08/13 00:11:47;;;;;;;12.40;5.50;;;;;;;14.17;100.00;101260.09;7396958;19;20977;-40
2023/08/13 00:14:19;;;;;;;12.77;4.90;;;;;;;14.14;100.00;101265.19;7371961;19;20511;-38
2023/08/13 00:16:49;;;;;;;14.27;6.00;;;;;;;14.09;100.00;101271.94;7393765;19;20985;-37
2023/08/13 00:19:22;;;;;;;13.97;6.80;;;;;;;14.04;100.00;101271.78;7368623;19;21144;-40
2023/08/13 00:21:55;;;;;;;17.73;6.77;;;;;;;14.08;100.00;101274.47;7396198;19;20404;-39
2023/08/13 00:24:36;;;;;;;22.30;6.43;;;;;;;14.11;100.00;101277.19;7371326;19;20775;-38
2023/08/13 00:27:06;;;;;;;12.13;6.33;;;;;;;14.10;100.00;101268.50;7395260;19;20426;-39
2023/08/13 00:29:40;;;;;;;12.37;5.50;;;;;;;14.08;100.00;101279.66;7369914;19;20456;-39
2023/08/13 00:32:10;;;;;;;17.60;6.20;;;;;;;14.10;100.00;101273.69;7392916;19;20399;-38
2023/08/13 00:34:40;;;;;;;18.80;7.23;;;;;;;14.09;100.00;101273.66;7371310;19;20451;-39
2023/08/13 00:37:10;;;;;;;8.03;4.97;;;;;;;14.05;100.00;101280.44;7392578;19;20438;-39
2023/08/13 00:39:40;;;;;;;17.43;5.07;;;;;;;14.06;100.00;101287.41;7372755;19;20974;-41
2023/08/13 00:42:10;;;;;;;12.07;5.80;;;;;;;14.03;100.00;101287.28;7391843;19;20380;-38
2023/08/13 00:44:42;;;;;;;16.30;5.03;;;;;;;14.03;100.00;101288.19;7371463;19;20818;-38
2023/08/13 00:47:12;;;;;;;12.60;5.40;;;;;;;14.03;100.00;101293.38;7387920;19;20420;-38
2023/08/13 00:49:42;;;;;;;11.70;5.33;;;;;;;14.03;100.00;101302.84;7392343;19;20411;-38
2023/08/13 00:52:12;;;;;;;18.03;6.50;;;;;;;13.99;100.00;101291.47;7393554;19;20394;-39
2023/08/13 00:54:42;;;;;;;17.57;8.90;;;;;;;13.98;100.00;101301.78;7372173;19;20502;-39
2023/08/13 00:57:12;;;;;;;11.80;6.10;;;;;;;13.98;100.00;101304.38;7390503;19;20443;-38
2023/08/13 00:59:45;;;;;;;16.80;4.70;;;;;;;13.97;100.00;101295.75;7372867;19;20411;-39
2023/08/13 01:02:14;;;;;;;13.27;5.43;;;;;;;13.94;100.00;101293.00;7369048;19;20420;-39
2023/08/13 01:04:45;;;;;;;8.50;4.93;;;;;;;13.91;100.00;101301.56;7390802;19;20472;-40
2023/08/13 01:07:18;;;;;;;15.10;5.67;;;;;;;13.95;100.00;101309.47;7370281;19;20499;-41
2023/08/13 01:09:54;;;;;;;17.93;6.67;;;;;;;13.91;100.00;101311.06;7391584;19;20405;-39
2023/08/13 01:12:28;;;;;;;9.60;6.20;;;;;;;13.91;100.00;101314.53;7368330;19;20459;-38
2023/08/13 01:15:05;;;;;;;13.33;5.47;;;;;;;13.89;100.00;101304.94;7391061;19;20402;-38
2023/08/13 01:17:37;;;;;;;13.70;6.87;;;;;;;13.89;100.00;101310.13;7368330;19;20414;-39
2023/08/13 01:20:08;;;;;;;24.43;11.33;;;;;;;13.87;100.00;101306.59;7394164;19;20372;-38
2023/08/13 01:22:41;;;;;;;8.20;4.40;;;;;;;13.85;100.00;101311.72;7370086;19;20418;-43
2023/08/13 01:25:12;;;;;;;17.07;6.20;;;;;;;13.84;100.00;101309.94;7390406;19;20404;-39
2023/08/13 01:27:49;;;;;;;11.23;6.20;;;;;;;13.84;100.00;101312.56;7371400;19;20399;-41
2023/08/13 01:30:23;;;;;;;8.67;4.97;;;;;;;13.82;100.00;101309.03;7393405;19;20387;-39
2023/08/13 01:32:57;;;;;;;14.17;4.60;;;;;;;13.84;100.00;101315.13;7367630;19;20390;-40
2023/08/13 01:35:28;;;;;;;14.73;5.90;;;;;;;13.80;100.00;101310.69;7392621;19;20412;-38
2023/08/13 01:38:01;;;;;;;16.60;6.50;;;;;;;13.82;100.00;101313.31;7366890;19;20426;-40
2023/08/13 01:40:31;;;;;;;11.13;4.13;;;;;;;13.75;100.00;101307.91;7393767;19;20384;-38
2023/08/13 01:43:00;;;;;;;8.77;3.70;;;;;;;13.75;100.00;101317.41;7369016;19;20403;-40
2023/08/13 01:45:30;;;;;;;19.00;4.80;;;;;;;13.75;100.00;101320.88;7391972;19;20383;-40
2023/08/13 01:48:00;;;;;;;10.70;4.87;;;;;;;13.74;100.00;101316.50;7361315;19;20477;-41
2023/08/13 01:50:30;;;;;;;13.00;4.70;;;;;;;13.75;100.00;101317.41;7393514;19;20407;-38
2023/08/13 01:53:02;;;;;;;7.60;4.50;;;;;;;13.74;100.00;101313.91;7370480;19;20435;-40
2023/08/13 01:55:31;;;;;;;7.73;3.97;;;;;;;13.77;100.00;101306.28;7394641;19;20425;-39
2023/08/13 01:58:01;;;;;;;9.70;4.30;;;;;;;13.81;100.00;101320.22;7369054;19;20470;-40
2023/08/13 02:00:31;;;;;;;11.93;5.53;;;;;;;13.80;100.00;101315.88;7393251;19;20482;-39
2023/08/13 02:03:01;;;;;;;9.83;4.70;;;;;;;13.82;100.00;101314.22;7371207;19;20395;-39
2023/08/13 02:05:31;;;;;;;28.63;11.57;;;;;;;13.86;100.00;101320.41;7392654;19;20396;-39
2023/08/13 02:08:03;;;;;;;13.03;4.37;;;;;;;13.90;100.00;101312.78;7369398;19;20442;-38
2023/08/13 02:10:32;;;;;;;6.20;4.40;;;;;;;13.93;100.00;101311.16;7395206;19;20394;-39
2023/08/13 02:13:03;;;;;;;17.97;5.67;;;;;;;13.99;100.00;101308.75;7369285;19;20399;-38
2023/08/13 02:15:32;;;;;;;12.67;3.97;;;;;;;13.96;100.00;101316.44;7392808;19;20424;-41
2023/08/13 02:18:02;;;;;;;13.80;4.57;;;;;;;14.01;100.00;101320.09;7367164;19;20435;-38
2023/08/13 02:20:32;;;;;;;14.30;4.60;;;;;;;14.02;100.00;101312.38;7392587;19;20407;-40
2023/08/13 02:23:05;;;;;;;9.27;4.10;;;;;;;14.01;100.00;101317.50;7369725;19;20399;-40
2023/08/13 02:25:35;;;;;;;11.77;4.30;;;;;;;14.01;100.00;101320.09;7395619;19;20418;-39
2023/08/13 02:28:05;;;;;;;12.93;3.90;;;;;;;14.02;100.00;101329.63;7368747;19;20447;-39
2023/08/13 02:30:34;;;;;;;9.63;4.50;;;;;;;14.06;100.00;101326.31;7394957;19;20407;-39
2023/08/13 02:33:04;;;;;;;12.20;4.87;;;;;;;14.09;100.00;101328.16;7369722;19;20441;-39
2023/08/13 02:35:33;;;;;;;10.57;4.47;;;;;;;14.06;100.00;101331.53;7392243;19;20507;-38
2023/08/13 02:38:07;;;;;;;11.67;4.00;;;;;;;14.08;100.00;101337.63;7367797;19;20423;-41
2023/08/13 02:40:37;;;;;;;13.97;4.70;;;;;;;14.10;100.00;101341.16;7394255;19;20440;-39
2023/08/13 02:43:06;;;;;;;22.60;7.20;;;;;;;14.14;100.00;101339.56;7368414;19;20430;-39
2023/08/13 02:45:37;;;;;;;22.67;5.17;;;;;;;14.12;100.00;101339.53;7390911;19;20415;-41
2023/08/13 02:48:07;;;;;;;7.60;3.60;;;;;;;14.11;100.00;101349.84;7368138;19;20407;-40
2023/08/13 02:50:37;;;;;;;13.60;4.80;;;;;;;14.14;100.00;101340.44;7392683;19;20436;-39
2023/08/13 02:53:09;;;;;;;13.30;5.80;;;;;;;14.16;100.00;101340.50;7365969;19;20419;-41
2023/08/13 02:55:39;;;;;;;12.10;4.50;;;;;;;14.12;100.00;101344.72;7393636;19;20401;-39
2023/08/13 02:58:08;;;;;;;11.70;4.63;;;;;;;14.11;100.00;101355.88;7366247;19;20407;-39
2023/08/13 03:00:39;;;;;;;16.30;4.40;;;;;;;14.13;100.00;101351.66;7391884;19;20407;-39
2023/08/13 03:03:09;;;;;;;12.10;3.73;;;;;;;14.10;100.00;101355.84;7368564;19;20791;-39
2023/08/13 03:05:38;;;;;;;13.20;4.07;;;;;;;14.11;100.00;101357.63;7391490;19;20491;-41
2023/08/13 03:08:11;;;;;;;11.00;3.73;;;;;;;14.10;100.00;101361.03;7367824;19;20454;-41
2023/08/13 03:10:41;;;;;;;15.67;4.70;;;;;;;14.12;100.00;101357.69;7390738;19;20396;-40
2023/08/13 03:13:10;;;;;;;7.17;3.53;;;;;;;14.08;100.00;101362.69;7365548;19;20747;-40
2023/08/13 03:15:40;;;;;;;15.13;4.70;;;;;;;14.08;100.00;101362.69;7389821;19;20388;-40
2023/08/13 03:18:10;;;;;;;10.10;3.33;;;;;;;14.04;100.00;101356.50;7364491;19;20423;-38
2023/08/13 03:20:40;;;;;;;9.73;3.73;;;;;;;14.01;100.00;101359.84;7388410;19;20384;-38
2023/08/13 03:23:12;;;;;;;8.90;3.20;;;;;;;14.00;100.00;101365.00;7366108;19;20407;-40
2023/08/13 03:25:41;;;;;;;10.87;3.57;;;;;;;13.97;100.00;101359.69;7389373;19;20413;-40
2023/08/13 03:28:11;;;;;;;13.70;4.50;;;;;;;13.98;100.00;101351.09;7367796;19;20514;-40
2023/08/13 03:30:40;;;;;;;12.53;4.70;;;;;;;13.98;100.00;101354.56;7390373;19;20471;-38
2023/08/13 03:33:10;;;;;;;8.63;3.67;;;;;;;13.95;100.00;101356.16;7365581;19;20769;-40
2023/08/13 03:35:41;;;;;;;11.33;4.40;;;;;;;13.89;100.00;101362.88;7387358;19;20790;-39
2023/08/13 03:38:13;;;;;;;7.27;3.60;;;;;;;13.88;100.00;101361.13;7362267;19;20834;-38
2023/08/13 03:40:43;;;;;;;9.30;3.90;;;;;;;13.85;100.00;101355.81;7388411;19;20748;-38
2023/08/13 03:43:13;;;;;;;11.30;4.20;;;;;;;13.80;100.00;101362.56;7363712;19;20448;-40
2023/08/13 03:45:43;;;;;;;7.73;3.43;;;;;;;13.82;100.00;101366.09;7389068;19;20371;-39
2023/08/13 03:48:13;;;;;;;7.67;4.40;;;;;;;13.82;100.00;101362.59;7365101;19;20403;-42
2023/08/13 03:50:44;;;;;;;18.93;4.03;;;;;;;13.81;100.00;101363.41;7387871;19;20408;-39
2023/08/13 03:53:16;;;;;;;5.30;3.10;;;;;;;13.79;100.00;101358.16;7362646;19;20422;-42
2023/08/13 03:55:45;;;;;;;12.83;4.33;;;;;;;13.79;100.00;101355.56;7387468;19;20391;-38
2023/08/13 03:58:15;;;;;;;8.03;3.70;;;;;;;13.74;100.00;101357.13;7364097;19;20483;-40
2023/08/13 04:00:45;;;;;;;6.10;3.10;;;;;;;13.69;100.00;101358.66;7387631;19;20502;-39
2023/08/13 04:03:15;;;;;;;11.00;4.00;;;;;;;13.67;100.00;101352.50;7363798;19;20490;-39
2023/08/13 04:05:54;;;;;;;12.70;3.47;;;;;;;13.65;100.00;101352.47;7386772;19;20403;-40
2023/08/13 04:08:26;;;;;;;16.80;4.20;;;;;;;13.76;100.00;101355.47;7365306;19;20446;-42
2023/08/13 04:10:56;;;;;;;8.23;3.83;;;;;;;13.72;100.00;101348.38;7390163;19;20395;-39
2023/08/13 04:13:25;;;;;;;14.50;4.80;;;;;;;13.68;100.00;101351.72;7369956;19;20937;-40
2023/08/13 04:15:55;;;;;;;14.43;4.00;;;;;;;13.68;100.00;101349.13;7393412;19;20413;-40
2023/08/13 04:18:25;;;;;;;12.50;3.50;;;;;;;13.71;100.00;101351.81;7369676;19;20443;-39
2023/08/13 04:20:54;;;;;;;6.47;3.13;;;;;;;13.70;100.00;101347.47;7396152;19;20396;-40
2023/08/13 04:23:26;;;;;;;12.07;3.70;;;;;;;13.67;100.00;101353.41;7371031;19;20412;-38
2023/08/13 04:25:56;;;;;;;10.57;4.97;;;;;;;13.69;100.00;101348.28;7392884;19;20911;-41
2023/08/13 04:28:26;;;;;;;6.07;3.83;;;;;;;13.74;100.00;101351.94;7370830;19;20449;-40
2023/08/13 04:30:56;;;;;;;10.17;4.10;;;;;;;13.82;100.00;101347.94;7393654;19;20387;-37
2023/08/13 04:33:25;;;;;;;10.40;3.70;;;;;;;13.89;100.00;101334.34;7370291;19;21141;-39
2023/08/13 04:35:55;;;;;;;8.23;3.73;;;;;;;13.71;100.00;101344.03;7394211;19;20397;-38
2023/08/13 04:38:28;;;;;;;10.13;3.60;;;;;;;13.62;100.00;101341.97;7369320;19;20467;-37
2023/08/13 04:40:58;;;;;;;11.43;4.57;;;;;;;13.57;100.00;101344.41;7393008;19;20486;-38
2023/08/13 04:43:27;;;;;;;19.63;6.20;;;;;;;13.59;100.00;101350.50;7370596;19;20419;-39
2023/08/13 04:45:57;;;;;;;7.57;4.27;;;;;;;13.63;100.00;101334.25;7394606;19;20788;-38
2023/08/13 04:48:43;;;;;;;9.77;3.90;;;;;;;13.67;100.00;101331.78;7372066;19;20423;-39
2023/08/13 04:51:18;;;;;;;12.17;5.07;;;;;;;13.67;100.00;101324.88;7395974;19;20506;-39
2023/08/13 04:53:50;;;;;;;10.33;4.23;;;;;;;13.71;100.00;101313.81;7369372;19;20423;-39
2023/08/13 04:56:20;;;;;;;12.40;4.97;;;;;;;13.75;100.00;101310.50;7395435;19;20388;-40
2023/08/13 04:58:50;;;;;;;69.33;40.17;;;;;;;13.84;100.00;101301.31;7369159;19;20447;-39
2023/08/13 05:01:19;;;;;;;11.07;5.10;;;;;;;13.96;100.00;101300.88;7395469;19;20406;-38
2023/08/13 05:03:52;;;;;;;10.47;4.70;;;;;;;13.86;100.00;101295.34;7369727;19;20409;-39
2023/08/13 05:06:22;;;;;;;12.17;6.80;;;;;;;14.26;100.00;101293.28;7395155;19;20439;-40
2023/08/13 05:08:54;;;;;;;26.33;13.73;;;;;;;14.28;100.00;101290.75;7369795;19;20407;-39
2023/08/13 05:11:24;;;;;;;24.17;11.27;;;;;;;14.59;100.00;101289.22;7393421;19;20438;-41
2023/08/13 05:13:53;;;;;;;25.83;12.13;;;;;;;14.55;100.00;101284.72;7368396;19;20431;-39
2023/08/13 05:16:23;;;;;;;9.80;4.50;;;;;;;14.42;100.00;101294.69;7394850;19;20467;-39
2023/08/13 05:18:53;;;;;;;12.83;4.33;;;;;;;14.29;100.00;101302.91;7369414;19;20510;-42
2023/08/13 05:21:23;;;;;;;7.47;4.20;;;;;;;14.19;100.00;101299.09;7394226;19;20394;-38
2023/08/13 05:23:55;;;;;;;8.20;4.10;;;;;;;14.15;100.00;101312.81;7369604;19;20422;-40
2023/08/13 05:26:25;;;;;;;7.63;4.27;;;;;;;14.17;100.00;101305.94;7393487;19;20759;-38
2023/08/13 05:28:55;;;;;;;9.03;3.83;;;;;;;14.19;100.00;101322.44;7369709;19;20440;-41
2023/08/13 05:31:24;;;;;;;8.13;4.17;;;;;;;14.21;100.00;101307.84;7392520;19;21104;-41
2023/08/13 05:33:57;;;;;;;6.77;3.40;;;;;;;14.27;100.00;101312.34;7369181;19;20792;-39
2023/08/13 05:36:28;;;;;;;11.00;4.37;;;;;;;14.33;100.00;101315.16;7393117;19;20745;-39
2023/08/13 05:39:01;;;;;;;11.10;4.00;;;;;;;14.35;100.00;101308.31;7368634;19;20423;-41
2023/08/13 05:41:31;;;;;;;11.23;4.77;;;;;;;14.42;100.00;101299.88;7392095;19;20955;-40
2023/08/13 05:44:01;;;;;;;12.43;4.40;;;;;;;14.45;100.00;101301.72;7367947;19;20441;-41
2023/08/13 05:46:30;;;;;;;9.30;4.40;;;;;;;14.50;100.00;101299.31;7391825;19;20405;-39
2023/08/13 05:49:00;;;;;;;8.80;3.83;;;;;;;14.57;100.00;101301.28;7367937;19;20420;-38
2023/08/13 05:51:30;;;;;;;8.83;4.27;;;;;;;14.75;100.00;101292.34;7394353;19;20417;-39
2023/08/13 05:54:02;;;;;;;6.90;3.93;;;;;;;14.95;100.00;101293.91;7368421;19;20403;-43
2023/08/13 05:56:32;;;;;;;7.37;4.03;;;;;;;14.95;100.00;101299.09;7391735;19;20451;-39
2023/08/13 05:59:02;;;;;;;12.50;4.33;;;;;;;15.03;100.00;101293.25;7369552;19;20436;-39
2023/08/13 06:01:31;;;;;;;13.63;4.50;;;;;;;14.99;100.00;101294.88;7392001;19;20739;-42
2023/08/13 06:04:02;;;;;;;9.77;4.80;;;;;;;15.04;100.00;101298.50;7367606;19;20431;-39
2023/08/13 06:06:31;;;;;;;38.57;19.50;;;;;;;15.16;100.00;101300.59;7390967;19;20400;-40
2023/08/13 06:09:05;;;;;;;17.70;7.60;;;;;;;15.19;100.00;101298.13;7368399;19;20403;-40
2023/08/13 06:11:35;;;;;;;19.77;9.70;;;;;;;15.33;100.00;101305.44;7391979;19;20391;-39
2023/08/13 06:14:05;;;;;;;8.90;6.30;;;;;;;15.37;100.00;101308.19;7366557;19;20460;-42
2023/08/13 06:16:35;;;;;;;8.50;4.30;;;;;;;15.49;100.00;101307.66;7392959;19;20376;-41
2023/08/13 06:19:04;;;;;;;10.47;4.43;;;;;;;15.66;100.00;101310.75;7364142;19;20535;-39
2023/08/13 06:21:34;;;;;;;16.00;7.53;;;;;;;15.72;100.00;101309.19;7391095;19;20392;-40
2023/08/13 06:24:07;;;;;;;14.43;5.03;;;;;;;15.74;100.00;101323.16;7366085;19;20454;-43
2023/08/13 06:26:37;;;;;;;64.70;25.87;;;;;;;15.77;100.00;101323.22;7390875;19;20956;-39
2023/08/13 06:29:07;;;;;;;16.37;7.87;;;;;;;15.71;100.00;101333.44;7365932;19;20439;-40
2023/08/13 06:31:37;;;;;;;9.93;4.83;;;;;;;15.65;100.00;101336.75;7392241;19;20400;-39
2023/08/13 06:34:13;;;;;;;19.30;9.30;;;;;;;15.56;100.00;101339.06;7363908;19;20438;-43
2023/08/13 06:36:43;;;;;;;11.47;4.77;;;;;;;15.60;100.00;101348.72;7390043;19;20433;-39
2023/08/13 06:39:15;;;;;;;13.60;6.70;;;;;;;15.66;100.00;101351.53;7364651;19;20427;-38
2023/08/13 06:41:45;;;;;;;17.53;9.00;;;;;;;15.72;100.00;101345.59;7390864;19;20380;-40
2023/08/13 06:44:18;;;;;;;22.33;9.00;;;;;;;15.65;100.00;101341.97;7367655;19;20410;-39
2023/08/13 06:46:48;;;;;;;12.07;5.97;;;;;;;15.82;100.00;101346.75;7389649;19;20908;-39
2023/08/13 06:49:18;;;;;;;9.27;4.17;;;;;;;15.76;100.00;101348.38;7365948;19;20430;-39
2023/08/13 06:51:48;;;;;;;9.57;4.23;;;;;;;15.83;100.00;101343.34;7391919;19;20386;-38
2023/08/13 06:54:20;;;;;;;15.67;5.00;;;;;;;15.89;100.00;101348.72;7365395;19;20407;-39
2023/08/13 06:56:50;;;;;;;6.50;4.30;;;;;;;15.97;100.00;101349.84;7390183;19;20407;-40
2023/08/13 06:59:19;;;;;;;8.63;4.03;;;;;;;16.00;100.00;101357.75;7365983;19;20427;-41
2023/08/13 07:01:49;;;;;;;9.80;4.13;;;;;;;16.12;100.00;101370.25;7390680;19;20392;-38
2023/08/13 07:04:19;;;;;;;11.77;4.40;;;;;;;16.26;100.00;101374.94;7364709;19;20554;-39
2023/08/13 07:06:49;;;;;;;16.20;4.07;;;;;;;16.31;100.00;101395.06;7388948;19;20427;-38
2023/08/13 07:09:22;;;;;;;7.87;3.73;;;;;;;16.46;100.00;101406.75;7364073;19;20395;-40
2023/08/13 07:11:51;;;;;;;15.03;4.60;;;;;;;16.54;100.00;101418.28;7390892;19;20420;-39
2023/08/13 07:14:21;;;;;;;11.67;3.93;;;;;;;16.56;100.00;101440.03;7364499;19;20403;-39
2023/08/13 07:16:51;;;;;;;10.57;4.20;;;;;;;16.71;100.00;101454.28;7389819;19;20819;-39
2023/08/13 07:19:21;;;;;;;9.90;3.63;;;;;;;16.82;100.00;101478.06;7363893;19;20814;-39
2023/08/13 07:21:50;;;;;;;15.43;7.17;;;;;;;16.94;100.00;101485.31;7388918;19;20800;-39
2023/08/13 07:24:23;;;;;;;6.90;4.13;;;;;;;17.04;100.00;101495.19;7364528;19;20399;-39
2023/08/13 07:26:52;;;;;;;8.03;3.43;;;;;;;17.03;100.00;101501.25;7390530;19;20411;-42
2023/08/13 07:29:22;;;;;;;11.90;3.83;;;;;;;17.09;100.00;101517.06;7364744;19;20416;-39
2023/08/13 07:31:52;;;;;;;23.87;10.03;;;;;;;17.27;100.00;101532.31;7393520;19;20813;-45
2023/08/13 07:34:22;;;;;;;13.83;4.30;;;;;;;17.28;100.00;101544.50;7364173;19;20407;-40
2023/08/13 07:36:51;;;;;;;17.70;3.50;;;;;;;17.39;100.00;101544.78;7390812;19;20497;-39
2023/08/13 07:39:24;;;;;;;12.33;3.70;;;;;;;17.50;100.00;101558.13;7364457;19;21082;-43
2023/08/13 07:41:53;;;;;;;10.33;2.93;;;;;;;17.60;100.00;101571.38;7388300;19;20435;-39
2023/08/13 07:44:24;;;;;;;11.13;3.17;;;;;;;17.61;100.00;101602.75;7362987;19;20431;-40
2023/08/13 07:46:58;;;;;;;12.50;3.07;;;;;;;17.72;100.00;101612.56;7395589;19;20491;-40
2023/08/13 07:49:27;;;;;;;10.90;3.33;;;;;;;17.68;100.00;101617.72;7371675;19;20994;-39
2023/08/13 07:51:57;;;;;;;9.00;3.30;;;;;;;17.69;100.00;101623.78;7395157;19;20403;-40
2023/08/13 07:54:29;;;;;;;8.50;2.80;;;;;;;17.73;100.00;101633.47;7371263;19;20395;-41
2023/08/13 07:56:59;;;;;;;8.33;3.00;;;;;;;17.81;100.00;101646.72;7394257;19;20415;-40
2023/08/13 07:59:29;;;;;;;7.67;2.83;;;;;;;17.77;100.00;101643.16;7370756;19;20843;-44
2023/08/13 08:01:59;;;;;;;8.73;3.13;;;;;;;17.82;100.00;101648.50;7394601;19;20435;-39
2023/08/13 08:04:28;;;;;;;8.10;2.93;;;;;;;17.95;100.00;101641.88;7370810;19;20424;-39
2023/08/13 08:06:58;;;;;;;11.00;3.30;;;;;;;18.03;100.00;101636.81;7396934;19;20799;-39
2023/08/13 08:09:31;;;;;;;8.67;2.83;;;;;;;18.17;100.00;101643.31;7372101;19;20498;-40
2023/08/13 08:12:00;;;;;;;15.93;3.97;;;;;;;18.21;100.00;101650.38;7395007;19;20762;-39
2023/08/13 08:14:30;;;;;;;6.00;2.57;;;;;;;18.21;100.00;101657.34;7370226;19;20426;-40
2023/08/13 08:17:05;;;;;;;7.50;1.93;;;;;;;18.39;100.00;101658.59;7396494;19;20438;-40
2023/08/13 08:19:35;;;;;;;8.63;2.73;;;;;;;18.47;100.00;101663.16;7371819;19;20419;-39
2023/08/13 08:22:05;;;;;;;6.60;2.33;;;;;;;18.46;100.00;101678.81;7395270;19;20761;-40
2023/08/13 08:24:37;;;;;;;6.47;2.27;;;;;;;18.41;100.00;101689.13;7371392;19;20446;-41
2023/08/13 08:27:07;;;;;;;12.47;2.40;;;;;;;18.45;100.00;101695.31;7395294;19;20995;-41
2023/08/13 08:29:37;;;;;;;8.63;2.43;;;;;;;18.57;100.00;101684.28;7370813;19;20454;-40
2023/08/13 08:32:07;;;;;;;19.13;5.50;;;;;;;18.52;100.00;101696.34;7397788;19;20415;-39
2023/08/13 08:34:36;;;;;;;8.37;2.00;;;;;;;18.49;100.00;101715.47;7371223;19;20451;-39
2023/08/13 08:37:10;;;;;;;7.07;2.23;;;;;;;18.61;100.00;101717.50;7396929;19;20447;-39
2023/08/13 08:39:43;;;;;;;11.70;4.67;;;;;;;18.62;100.00;101714.91;7375817;19;20978;-39
2023/08/13 08:42:16;;;;;;;8.90;2.57;;;;;;;18.67;100.00;101701.94;7385369;19;20411;-40
2023/08/13 08:44:46;;;;;;;10.70;2.67;;;;;;;18.67;100.00;101703.69;7397052;19;20427;-40
2023/08/13 08:47:16;;;;;;;20.57;7.90;;;;;;;18.62;100.00;101714.03;7374305;19;20443;-44
2023/08/13 08:49:48;;;;;;;22.50;9.77;;;;;;;18.64;100.00;101717.56;7397065;19;20959;-39
2023/08/13 08:52:18;;;;;;;28.73;12.43;;;;;;;18.73;100.00;101715.13;7373334;19;20499;-40
2023/08/13 08:54:51;;;;;;;19.73;7.63;;;;;;;18.75;100.00;101725.63;7396948;19;20396;-38
2023/08/13 08:57:21;;;;;;;17.93;7.93;;;;;;;18.92;100.00;101725.16;7371237;19;20464;-40
2023/08/13 08:59:51;;;;;;;23.83;11.03;;;;;;;18.93;100.00;101714.75;7397330;19;20409;-40
2023/08/13 09:02:21;;;;;;;6.47;2.10;;;;;;;19.19;100.00;101708.31;7372746;19;20407;-41
2023/08/13 09:04:51;;;;;;;10.20;3.07;;;;;;;19.10;100.00;101712.53;7396103;19;20410;-39
2023/08/13 09:07:20;;;;;;;12.10;5.10;;;;;;;19.09;100.00;101715.09;7373106;19;20459;-41
2023/08/13 09:09:53;;;;;;;14.10;5.63;;;;;;;19.02;100.00;101732.34;7396917;19;21006;-41
2023/08/13 09:12:23;;;;;;;4.90;2.17;;;;;;;19.03;100.00;101732.41;7371136;19;20424;-41
2023/08/13 09:14:58;;;;;;;17.47;7.20;;;;;;;19.03;100.00;101724.56;7396454;19;20505;-43
2023/08/13 09:17:28;;;;;;;8.63;2.57;;;;;;;19.08;100.00;101734.25;7374216;19;20451;-40
2023/08/13 09:19:58;;;;;;;4.83;1.63;;;;;;;19.30;100.00;101731.22;7394521;19;20930;-42
2023/08/13 09:22:28;;;;;;;11.60;5.03;;;;;;;19.39;100.00;101734.91;7373019;19;20475;-39
2023/08/13 09:25:02;;;;;;;9.43;4.40;;;;;;;19.40;100.00;101731.44;7396152;19;20404;-44
2023/08/13 09:27:32;;;;;;;6.27;2.00;;;;;;;19.47;100.00;101730.72;7373016;19;20482;-40
2023/08/13 09:30:02;;;;;;;16.27;7.50;;;;;;;19.42;100.00;101746.31;7394325;19;20420;-43
2023/08/13 09:32:32;;;;;;;15.80;5.70;;;;;;;19.52;100.00;101741.25;7371940;19;20402;-40
2023/08/13 09:35:05;;;;;;;8.17;3.00;;;;;;;19.50;100.00;101754.34;7395925;19;20410;-44
2023/08/13 09:37:35;;;;;;;9.00;2.83;;;;;;;19.50;100.00;101754.34;7371171;19;20423;-44
2023/08/13 09:40:09;;;;;;;10.67;4.70;;;;;;;19.52;100.00;101757.84;7396650;19;20407;-42
2023/08/13 09:42:39;;;;;;;11.40;4.27;;;;;;;19.55;100.00;101759.66;7371229;19;20962;-40
2023/08/13 09:45:11;;;;;;;7.27;1.90;;;;;;;19.64;100.00;101762.44;7395639;19;20434;-41
2023/08/13 09:47:43;;;;;;;5.37;2.40;;;;;;;19.69;100.00;101759.94;7371885;19;20482;-41
2023/08/13 09:50:15;;;;;;;8.33;2.87;;;;;;;19.75;100.00;101754.81;7396267;19;20408;-41
2023/08/13 09:52:48;;;;;;;17.30;5.40;;;;;;;19.92;100.00;101756.88;7371205;19;20437;-40
2023/08/13 09:55:23;;;;;;;7.10;2.17;;;;;;;19.77;100.00;101758.34;7394166;19;20408;-45
2023/08/13 09:57:58;;;;;;;18.23;5.10;;;;;;;20.12;100.00;101759.00;7369531;19;20418;-43
2023/08/13 10:00:29;;;;;;;5.03;1.77;;;;;;;20.26;100.00;101761.88;7396589;19;20406;-41
2023/08/13 10:03:03;;;;;;;6.43;1.73;;;;;;;20.24;100.00;101760.13;7369373;19;20410;-45
2023/08/13 10:05:33;;;;;;;4.73;2.40;;;;;;;20.32;100.00;101752.41;7396180;19;20471;-41
2023/08/13 10:08:03;;;;;;;8.30;3.60;;;;;;;20.61;100.00;101754.59;7367118;19;20424;-43
2023/08/13 10:10:35;;;;;;;7.23;2.60;;;;;;;20.46;100.00;101764.84;7396624;19;20634;-39
2023/08/13 10:13:06;;;;;;;19.00;6.90;;;;;;;20.10;100.00;101757.25;7368069;19;20411;-42
2023/08/13 10:15:38;;;;;;;7.33;2.27;;;;;;;19.97;100.00;101760.50;7392391;19;20415;-38
2023/08/13 10:18:08;;;;;;;13.90;6.20;;;;;;;19.89;100.00;101754.22;7370393;19;20936;-40
2023/08/13 10:20:37;;;;;;;8.97;4.10;;;;;;;20.00;100.00;101757.91;7394226;19;20411;-41
2023/08/13 10:23:11;;;;;;;8.47;2.47;;;;;;;20.02;100.00;101752.72;7369937;19;20407;-39
2023/08/13 10:25:45;;;;;;;26.10;10.30;;;;;;;19.93;100.00;101749.03;7393964;19;20418;-38
2023/08/13 10:28:25;;;;;;;12.73;4.97;;;;;;;20.33;100.00;101755.88;7367529;19;20459;-39
2023/08/13 10:31:22;;;;;;;16.20;4.67;;;;;;;20.80;100.00;101754.00;7392860;19;21002;-41
2023/08/13 10:34:02;;;;;;;7.40;1.87;;;;;;;20.76;100.00;101753.06;7367126;19;20430;-39
2023/08/13 10:36:48;;;;;;;14.73;5.13;;;;;;;20.43;100.00;101765.66;7394085;19;20963;-41
2023/08/13 10:39:35;;;;;;;17.77;7.13;;;;;;;20.61;100.00;101770.31;7365639;19;20443;-39
2023/08/13 10:42:43;;;;;;;16.07;6.53;;;;;;;20.55;100.00;101764.97;7393326;19;20983;-39
2023/08/13 10:45:13;;;;;;;7.17;2.10;;;;;;;20.45;100.00;101771.81;7370737;19;20447;-42
2023/08/13 10:47:46;;;;;;;4.53;1.40;;;;;;;20.64;100.00;101759.91;7369058;19;20403;-43
2023/08/13 10:50:19;;;;;;;18.30;7.03;;;;;;;20.67;100.00;101766.03;7394389;19;20436;-41
2023/08/13 10:52:48;;;;;;;23.33;9.73;;;;;;;20.74;100.00;101762.66;7367075;19;20423;-39
2023/08/13 10:55:20;;;;;;;34.23;14.43;;;;;;;21.04;100.00;101777.13;7393387;19;20440;-42
2023/08/13 10:57:55;;;;;;;18.73;7.23;;;;;;;21.27;100.00;101758.19;7367583;19;20403;-39
2023/08/13 11:00:26;;;;;;;10.57;2.47;;;;;;;21.37;100.00;101769.69;7395354;19;20475;-40
2023/08/13 11:03:00;;;;;;;5.60;1.97;;;;;;;21.35;100.00;101764.41;7366844;19;20518;-41
2023/08/13 11:05:30;;;;;;;20.57;7.30;;;;;;;21.01;100.00;101782.31;7392063;19;20408;-38
2023/08/13 11:08:00;;;;;;;45.47;21.53;;;;;;;20.76;100.00;101782.78;7369500;19;20428;-41
2023/08/13 11:10:30;;;;;;;8.50;3.03;;;;;;;20.95;100.00;101775.25;7392838;19;20444;-40
2023/08/13 11:13:07;;;;;;;6.70;3.00;;;;;;;20.86;100.00;101773.34;7367945;19;20486;-39
2023/08/13 11:15:37;;;;;;;8.53;2.00;;;;;;;20.98;100.00;101775.28;7391206;19;20400;-39
2023/08/13 11:18:08;;;;;;;8.43;3.23;;;;;;;21.38;100.00;101763.56;7367075;19;20414;-39
2023/08/13 11:20:38;;;;;;;17.27;7.60;;;;;;;21.49;100.00;101776.84;7397626;19;20824;-45
2023/08/13 11:23:08;;;;;;;33.90;14.63;;;;;;;21.30;100.00;101776.59;7369654;19;20442;-43
2023/08/13 11:25:38;;;;;;;12.80;4.50;;;;;;;21.40;100.00;101778.50;7399299;19;20415;-40
2023/08/13 11:28:10;;;;;;;18.43;7.73;;;;;;;21.44;100.00;101775.03;7373600;19;20526;-47
2023/08/13 11:30:41;;;;;;;28.30;12.00;;;;;;;21.47;100.00;101773.31;7395903;19;20412;-41